sensor_id;sensor_type;location;lat;lon;timestamp;pressure;altitude;pressure_sealevel;temperature;humidity
69707;BME280;56975;55.726;37.566;2023-07-22T00:00:00;99060.0;;;15.2;68.3
69707;BME280;56975;55.726;37.566;2023-07-22T00:05:00;99060.0;;;15.2;67.7
69707;BME280;56975;55.726;37.566;2023-07-22T00:10:00;99060.0;;;15.1;68.7
69707;BME280;56975;55.726;37.566;2023-07-22T00:15:00;99060.0;;;15.1;68.9
69707;BME280;56975;55.726;37.566;2023-07-22T00:20:00;99070.0;;;14.9;69.5
69707;BME280;56975;55.726;37.566;2023-07-22T00:25:00;99060.0;;;14.9;69.4
69707;BME280;56975;55.726;37.566;2023-07-22T00:30:00;99070.0;;;14.8;70.0
69707;BME280;56975;55.726;37.566;2023-07-22T00:35:00;99070.0;;;14.6;70.9
69707;BME280;56975;55.726;37.566;2023-07-22T00:40:02;99070.0;;;14.7;71.1
69707;BME280;56975;55.726;37.566;2023-07-22T00:45:00;99080.0;;;14.6;71.9
69707;BME280;56975;55.726;37.566;2023-07-22T00:50:02;99070.0;;;14.9;70.1
69707;BME280;56975;55.726;37.566;2023-07-22T00:55:00;99080.0;;;15.1;69.5
69707;BME280;56975;55.726;37.566;2023-07-22T01:00:00;99080.0;;;15.0;70.0
69707;BME280;56975;55.726;37.566;2023-07-22T01:05:00;99080.0;;;14.7;71.4
69707;BME280;56975;55.726;37.566;2023-07-22T01:10:00;99080.0;;;14.7;71.6
69707;BME280;56975;55.726;37.566;2023-07-22T01:15:04;99090.0;;;14.9;70.2
69707;BME280;56975;55.726;37.566;2023-07-22T01:20:00;99090.0;;;14.9;70.8
69707;BME280;56975;55.726;37.566;2023-07-22T01:25:00;99090.0;;;14.9;70.4
69707;BME280;56975;55.726;37.566;2023-07-22T01:30:00;99100.0;;;14.5;72.3
69707;BME280;56975;55.726;37.566;2023-07-22T01:35:18;99100.0;;;15.0;70.4
69707;BME280;56975;55.726;37.566;2023-07-22T01:40:00;99110.0;;;14.7;72.0
69707;BME280;56975;55.726;37.566;2023-07-22T01:45:00;99110.0;;;14.4;73.2
69707;BME280;56975;55.726;37.566;2023-07-22T01:50:00;99110.0;;;14.6;72.9
69707;BME280;56975;55.726;37.566;2023-07-22T01:55:00;99110.0;;;14.6;72.9
69707;BME280;56975;55.726;37.566;2023-07-22T02:00:00;99120.0;;;14.7;72.4
69707;BME280;56975;55.726;37.566;2023-07-22T02:05:00;99130.0;;;14.7;72.0
69707;BME280;56975;55.726;37.566;2023-07-22T02:10:00;99120.0;;;14.7;72.1
69707;BME280;56975;55.726;37.566;2023-07-22T02:15:00;99130.0;;;14.9;71.3
69707;BME280;56975;55.726;37.566;2023-07-22T02:20:00;99120.0;;;15.0;71.1
69707;BME280;56975;55.726;37.566;2023-07-22T02:25:00;99130.0;;;14.8;72.0
69707;BME280;56975;55.726;37.566;2023-07-22T02:30:00;99130.0;;;14.7;72.7
69707;BME280;56975;55.726;37.566;2023-07-22T02:35:00;99130.0;;;14.7;72.8
69707;BME280;56975;55.726;37.566;2023-07-22T02:40:00;99130.0;;;14.6;73.0
69707;BME280;56975;55.726;37.566;2023-07-22T02:45:00;99140.0;;;14.7;73.2
69707;BME280;56975;55.726;37.566;2023-07-22T02:50:00;99140.0;;;14.9;72.4
69707;BME280;56975;55.726;37.566;2023-07-22T02:55:10;99140.0;;;15.2;70.4
69707;BME280;56975;55.726;37.566;2023-07-22T03:00:00;99160.0;;;15.1;70.9
69707;BME280;56975;55.726;37.566;2023-07-22T03:05:00;99150.0;;;15.2;70.4
69707;BME280;56975;55.726;37.566;2023-07-22T03:10:00;99150.0;;;15.2;70.9
69707;BME280;56975;55.726;37.566;2023-07-22T03:15:00;99160.0;;;15.5;69.1
69707;BME280;56975;55.726;37.566;2023-07-22T03:20:00;99160.0;;;15.5;69.3
69707;BME280;56975;55.726;37.566;2023-07-22T03:25:00;99150.0;;;15.3;70.1
69707;BME280;56975;55.726;37.566;2023-07-22T03:30:00;99150.0;;;15.6;69.0
69707;BME280;56975;55.726;37.566;2023-07-22T03:35:00;99150.0;;;15.6;68.4
69707;BME280;56975;55.726;37.566;2023-07-22T03:40:00;99160.0;;;15.7;68.7
69707;BME280;56975;55.726;37.566;2023-07-22T03:45:00;99160.0;;;15.6;69.4
69707;BME280;56975;55.726;37.566;2023-07-22T03:50:00;99170.0;;;15.8;68.3
69707;BME280;56975;55.726;37.566;2023-07-22T03:55:00;99170.0;;;15.8;68.4
69707;BME280;56975;55.726;37.566;2023-07-22T04:00:00;99170.0;;;15.8;68.2
69707;BME280;56975;55.726;37.566;2023-07-22T04:05:00;99160.0;;;15.9;67.9
69707;BME280;56975;55.726;37.566;2023-07-22T04:10:00;99160.0;;;16.1;66.8
69707;BME280;56975;55.726;37.566;2023-07-22T04:15:00;99160.0;;;16.2;66.6
69707;BME280;56975;55.726;37.566;2023-07-22T04:20:00;99170.0;;;16.3;66.7
69707;BME280;56975;55.726;37.566;2023-07-22T04:25:00;99160.0;;;16.5;65.8
69707;BME280;56975;55.726;37.566;2023-07-22T04:30:00;99170.0;;;16.6;65.3
69707;BME280;56975;55.726;37.566;2023-07-22T04:35:00;99170.0;;;16.7;64.0
69707;BME280;56975;55.726;37.566;2023-07-22T04:40:00;99180.0;;;16.7;64.4
69707;BME280;56975;55.726;37.566;2023-07-22T04:45:00;99170.0;;;17.1;62.8
69707;BME280;56975;55.726;37.566;2023-07-22T04:50:00;99180.0;;;17.1;63.2
69707;BME280;56975;55.726;37.566;2023-07-22T04:55:00;99190.0;;;17.2;62.0
69707;BME280;56975;55.726;37.566;2023-07-22T05:00:00;99180.0;;;17.2;62.5
69707;BME280;56975;55.726;37.566;2023-07-22T05:05:00;99180.0;;;17.5;61.1
69707;BME280;56975;55.726;37.566;2023-07-22T05:10:00;99190.0;;;17.7;60.7
69707;BME280;56975;55.726;37.566;2023-07-22T05:15:00;99180.0;;;17.8;60.3
69707;BME280;56975;55.726;37.566;2023-07-22T05:20:00;99180.0;;;17.9;59.4
69707;BME280;56975;55.726;37.566;2023-07-22T05:25:00;99180.0;;;17.9;59.9
69707;BME280;56975;55.726;37.566;2023-07-22T05:30:00;99180.0;;;18.1;58.8
69707;BME280;56975;55.726;37.566;2023-07-22T05:35:00;99180.0;;;18.0;59.5
69707;BME280;56975;55.726;37.566;2023-07-22T05:40:00;99180.0;;;18.1;58.9
69707;BME280;56975;55.726;37.566;2023-07-22T05:45:02;99180.0;;;18.2;58.2
69707;BME280;56975;55.726;37.566;2023-07-22T05:50:00;99170.0;;;18.7;57.1
69707;BME280;56975;55.726;37.566;2023-07-22T05:55:00;99180.0;;;18.7;55.8
69707;BME280;56975;55.726;37.566;2023-07-22T06:00:00;99170.0;;;18.8;56.7
69707;BME280;56975;55.726;37.566;2023-07-22T06:05:00;99170.0;;;18.9;56.2
69707;BME280;56975;55.726;37.566;2023-07-22T06:10:00;99170.0;;;19.0;54.4
69707;BME280;56975;55.726;37.566;2023-07-22T06:15:00;99170.0;;;19.1;53.5
69707;BME280;56975;55.726;37.566;2023-07-22T06:20:00;99180.0;;;19.4;52.7
69707;BME280;56975;55.726;37.566;2023-07-22T06:25:00;99180.0;;;19.1;53.8
69707;BME280;56975;55.726;37.566;2023-07-22T06:30:00;99170.0;;;19.4;52.7
69707;BME280;56975;55.726;37.566;2023-07-22T06:35:00;99180.0;;;19.5;53.3
69707;BME280;56975;55.726;37.566;2023-07-22T06:40:00;99170.0;;;19.5;53.3
69707;BME280;56975;55.726;37.566;2023-07-22T06:45:00;99170.0;;;19.7;52.6
69707;BME280;56975;55.726;37.566;2023-07-22T06:50:00;99180.0;;;19.9;51.1
69707;BME280;56975;55.726;37.566;2023-07-22T06:55:00;99180.0;;;19.8;52.7
69707;BME280;56975;55.726;37.566;2023-07-22T07:00:00;99180.0;;;20.2;51.8
69707;BME280;56975;55.726;37.566;2023-07-22T07:05:00;99180.0;;;20.3;50.3
69707;BME280;56975;55.726;37.566;2023-07-22T07:10:00;99180.0;;;20.3;51.0
69707;BME280;56975;55.726;37.566;2023-07-22T07:15:00;99170.0;;;20.3;50.8
69707;BME280;56975;55.726;37.566;2023-07-22T07:20:00;99180.0;;;20.7;49.9
69707;BME280;56975;55.726;37.566;2023-07-22T07:25:00;99180.0;;;20.9;48.7
69707;BME280;56975;55.726;37.566;2023-07-22T07:30:00;99180.0;;;21.1;48.3
69707;BME280;56975;55.726;37.566;2023-07-22T07:35:00;99180.0;;;21.1;48.5
69707;BME280;56975;55.726;37.566;2023-07-22T07:40:00;99170.0;;;20.9;48.5
69707;BME280;56975;55.726;37.566;2023-07-22T07:45:00;99180.0;;;21.5;46.2
69707;BME280;56975;55.726;37.566;2023-07-22T07:50:01;99190.0;;;21.7;45.5
69707;BME280;56975;55.726;37.566;2023-07-22T07:55:00;99180.0;;;21.5;46.2
69707;BME280;56975;55.726;37.566;2023-07-22T08:00:00;99170.0;;;21.6;47.5
69707;BME280;56975;55.726;37.566;2023-07-22T08:05:00;99170.0;;;22.0;46.9
69707;BME280;56975;55.726;37.566;2023-07-22T08:10:00;99170.0;;;22.4;44.1
69707;BME280;56975;55.726;37.566;2023-07-22T08:15:00;99170.0;;;22.6;44.7
69707;BME280;56975;55.726;37.566;2023-07-22T08:20:00;99180.0;;;22.9;42.8
69707;BME280;56975;55.726;37.566;2023-07-22T08:25:00;99170.0;;;23.0;41.8
69707;BME280;56975;55.726;37.566;2023-07-22T08:30:00;99190.0;;;23.5;40.9
69707;BME280;56975;55.726;37.566;2023-07-22T08:35:00;99180.0;;;23.5;40.8
69707;BME280;56975;55.726;37.566;2023-07-22T08:40:00;99180.0;;;23.6;40.7
69707;BME280;56975;55.726;37.566;2023-07-22T08:45:01;99190.0;;;24.1;41.0
69707;BME280;56975;55.726;37.566;2023-07-22T08:50:01;99180.0;;;24.5;39.4
69707;BME280;56975;55.726;37.566;2023-07-22T08:55:01;99200.0;;;24.9;38.4
69707;BME280;56975;55.726;37.566;2023-07-22T09:00:01;99190.0;;;25.1;36.8
69707;BME280;56975;55.726;37.566;2023-07-22T09:05:00;99190.0;;;25.6;35.9
69707;BME280;56975;55.726;37.566;2023-07-22T09:10:00;99210.0;;;26.2;35.6
69707;BME280;56975;55.726;37.566;2023-07-22T09:15:00;99210.0;;;26.6;34.2
69707;BME280;56975;55.726;37.566;2023-07-22T09:20:00;99210.0;;;27.0;33.0
69707;BME280;56975;55.726;37.566;2023-07-22T09:25:13;99190.0;;;26.6;34.5
69707;BME280;56975;55.726;37.566;2023-07-22T09:30:00;99190.0;;;26.8;34.0
69707;BME280;56975;55.726;37.566;2023-07-22T09:35:00;99190.0;;;27.5;32.7
69707;BME280;56975;55.726;37.566;2023-07-22T09:40:00;99180.0;;;27.7;32.5
69707;BME280;56975;55.726;37.566;2023-07-22T09:45:00;99210.0;;;28.2;30.5
69707;BME280;56975;55.726;37.566;2023-07-22T09:50:00;99200.0;;;28.2;30.3
69707;BME280;56975;55.726;37.566;2023-07-22T09:55:00;99200.0;;;27.9;30.3
69707;BME280;56975;55.726;37.566;2023-07-22T10:00:00;99200.0;;;27.9;31.1
69707;BME280;56975;55.726;37.566;2023-07-22T10:05:02;99210.0;;;29.2;28.7
69707;BME280;56975;55.726;37.566;2023-07-22T10:10:01;99220.0;;;28.8;29.2
69707;BME280;56975;55.726;37.566;2023-07-22T10:15:00;99220.0;;;28.0;29.5
69707;BME280;56975;55.726;37.566;2023-07-22T10:20:01;99210.0;;;27.5;30.7
69707;BME280;56975;55.726;37.566;2023-07-22T10:25:01;99200.0;;;26.1;33.5
69707;BME280;56975;55.726;37.566;2023-07-22T10:30:00;99210.0;;;27.1;32.0
69707;BME280;56975;55.726;37.566;2023-07-22T10:35:00;99220.0;;;27.4;31.4
69707;BME280;56975;55.726;37.566;2023-07-22T10:40:01;99210.0;;;27.9;30.9
69707;BME280;56975;55.726;37.566;2023-07-22T10:45:00;99220.0;;;28.2;29.5
69707;BME280;56975;55.726;37.566;2023-07-22T10:50:06;99210.0;;;28.0;30.5
69707;BME280;56975;55.726;37.566;2023-07-22T10:55:00;99210.0;;;26.7;32.3
69707;BME280;56975;55.726;37.566;2023-07-22T11:00:00;99220.0;;;26.2;33.4
69707;BME280;56975;55.726;37.566;2023-07-22T11:05:02;99220.0;;;25.9;34.0
69707;BME280;56975;55.726;37.566;2023-07-22T11:10:10;99220.0;;;25.5;34.1
69707;BME280;56975;55.726;37.566;2023-07-22T11:15:02;99220.0;;;26.6;32.5
69707;BME280;56975;55.726;37.566;2023-07-22T11:20:01;99220.0;;;26.3;31.7
69707;BME280;56975;55.726;37.566;2023-07-22T11:25:00;99220.0;;;26.1;32.1
69707;BME280;56975;55.726;37.566;2023-07-22T11:30:02;99230.0;;;25.6;33.6
69707;BME280;56975;55.726;37.566;2023-07-22T11:35:00;99220.0;;;25.1;34.1
69707;BME280;56975;55.726;37.566;2023-07-22T11:40:00;99220.0;;;25.1;33.9
69707;BME280;56975;55.726;37.566;2023-07-22T11:45:00;99220.0;;;24.5;34.8
69707;BME280;56975;55.726;37.566;2023-07-22T11:50:00;99240.0;;;25.0;34.6
69707;BME280;56975;55.726;37.566;2023-07-22T11:55:02;99230.0;;;26.2;31.3
69707;BME280;56975;55.726;37.566;2023-07-22T12:00:00;99220.0;;;27.1;30.3
69707;BME280;56975;55.726;37.566;2023-07-22T12:05:01;99220.0;;;27.7;29.0
69707;BME280;56975;55.726;37.566;2023-07-22T12:10:01;99220.0;;;26.6;31.0
69707;BME280;56975;55.726;37.566;2023-07-22T12:15:02;99210.0;;;26.3;31.2
69707;BME280;56975;55.726;37.566;2023-07-22T12:20:05;99220.0;;;25.9;31.8
69707;BME280;56975;55.726;37.566;2023-07-22T12:25:00;99210.0;;;25.2;33.7
69707;BME280;56975;55.726;37.566;2023-07-22T12:30:00;99220.0;;;25.8;33.0
69707;BME280;56975;55.726;37.566;2023-07-22T12:35:00;99210.0;;;27.5;29.6
69707;BME280;56975;55.726;37.566;2023-07-22T12:40:00;99210.0;;;28.0;28.9
69707;BME280;56975;55.726;37.566;2023-07-22T12:45:00;99210.0;;;28.7;29.0
69707;BME280;56975;55.726;37.566;2023-07-22T12:50:00;99210.0;;;29.9;27.4
69707;BME280;56975;55.726;37.566;2023-07-22T12:55:00;99200.0;;;30.6;26.2
69707;BME280;56975;55.726;37.566;2023-07-22T13:00:00;99200.0;;;28.9;28.5
69707;BME280;56975;55.726;37.566;2023-07-22T13:05:00;99190.0;;;30.0;27.5
69707;BME280;56975;55.726;37.566;2023-07-22T13:10:06;99190.0;;;30.5;26.5
69707;BME280;56975;55.726;37.566;2023-07-22T13:15:00;99190.0;;;31.0;26.3
69707;BME280;56975;55.726;37.566;2023-07-22T13:20:00;99180.0;;;31.3;25.3
69707;BME280;56975;55.726;37.566;2023-07-22T13:25:00;99170.0;;;32.2;24.5
69707;BME280;56975;55.726;37.566;2023-07-22T13:30:00;99160.0;;;32.1;24.5
69707;BME280;56975;55.726;37.566;2023-07-22T13:35:00;99160.0;;;31.2;25.4
69707;BME280;56975;55.726;37.566;2023-07-22T13:40:00;99160.0;;;30.4;26.8
69707;BME280;56975;55.726;37.566;2023-07-22T13:45:00;99160.0;;;31.1;25.9
69707;BME280;56975;55.726;37.566;2023-07-22T13:50:01;99170.0;;;31.0;25.7
69707;BME280;56975;55.726;37.566;2023-07-22T13:55:00;99170.0;;;29.2;28.0
69707;BME280;56975;55.726;37.566;2023-07-22T14:00:00;99170.0;;;27.9;30.3
69707;BME280;56975;55.726;37.566;2023-07-22T14:05:00;99160.0;;;28.1;29.7
69707;BME280;56975;55.726;37.566;2023-07-22T14:10:00;99170.0;;;28.5;29.2
69707;BME280;56975;55.726;37.566;2023-07-22T14:15:00;99160.0;;;29.4;27.6
69707;BME280;56975;55.726;37.566;2023-07-22T14:20:00;99160.0;;;29.5;28.1
69707;BME280;56975;55.726;37.566;2023-07-22T14:25:00;99160.0;;;29.8;27.9
69707;BME280;56975;55.726;37.566;2023-07-22T14:30:00;99160.0;;;28.9;29.2
69707;BME280;56975;55.726;37.566;2023-07-22T14:35:00;99150.0;;;29.1;29.6
69707;BME280;56975;55.726;37.566;2023-07-22T14:40:00;99150.0;;;30.2;28.0
69707;BME280;56975;55.726;37.566;2023-07-22T14:45:00;99160.0;;;30.3;27.3
69707;BME280;56975;55.726;37.566;2023-07-22T14:50:00;99150.0;;;30.0;28.0
69707;BME280;56975;55.726;37.566;2023-07-22T14:55:00;99140.0;;;30.3;27.4
69707;BME280;56975;55.726;37.566;2023-07-22T15:00:00;99150.0;;;28.6;29.9
69707;BME280;56975;55.726;37.566;2023-07-22T15:05:00;99140.0;;;27.5;31.0
69707;BME280;56975;55.726;37.566;2023-07-22T15:10:00;99130.0;;;26.8;32.5
69707;BME280;56975;55.726;37.566;2023-07-22T15:15:00;99130.0;;;27.4;31.8
69707;BME280;56975;55.726;37.566;2023-07-22T15:20:00;99130.0;;;27.8;31.4
69707;BME280;56975;55.726;37.566;2023-07-22T15:25:00;99140.0;;;27.3;32.3
69707;BME280;56975;55.726;37.566;2023-07-22T15:30:00;99140.0;;;26.8;32.5
69707;BME280;56975;55.726;37.566;2023-07-22T15:35:00;99130.0;;;25.5;34.6
69707;BME280;56975;55.726;37.566;2023-07-22T15:40:00;99120.0;;;24.9;35.6
69707;BME280;56975;55.726;37.566;2023-07-22T15:45:00;99120.0;;;24.6;36.6
69707;BME280;56975;55.726;37.566;2023-07-22T15:50:00;99130.0;;;24.2;37.5
69707;BME280;56975;55.726;37.566;2023-07-22T15:55:00;99140.0;;;24.3;38.1
69707;BME280;56975;55.726;37.566;2023-07-22T16:00:00;99150.0;;;23.5;39.7
69707;BME280;56975;55.726;37.566;2023-07-22T16:05:00;99150.0;;;23.0;41.6
69707;BME280;56975;55.726;37.566;2023-07-22T16:10:00;99150.0;;;22.7;43.5
69707;BME280;56975;55.726;37.566;2023-07-22T16:15:00;99160.0;;;22.2;46.2
69707;BME280;56975;55.726;37.566;2023-07-22T16:20:00;99160.0;;;21.6;48.0
69707;BME280;56975;55.726;37.566;2023-07-22T16:25:00;99150.0;;;21.5;49.7
69707;BME280;56975;55.726;37.566;2023-07-22T16:30:00;99150.0;;;21.7;47.7
69707;BME280;56975;55.726;37.566;2023-07-22T16:35:00;99140.0;;;22.1;47.9
69707;BME280;56975;55.726;37.566;2023-07-22T16:40:00;99140.0;;;23.3;46.5
69707;BME280;56975;55.726;37.566;2023-07-22T16:45:00;99140.0;;;24.2;42.2
69707;BME280;56975;55.726;37.566;2023-07-22T16:50:01;99140.0;;;24.7;40.8
69707;BME280;56975;55.726;37.566;2023-07-22T16:55:00;99140.0;;;25.0;39.4
69707;BME280;56975;55.726;37.566;2023-07-22T17:00:00;99140.0;;;24.7;39.8
69707;BME280;56975;55.726;37.566;2023-07-22T17:05:00;99130.0;;;23.9;41.4
69707;BME280;56975;55.726;37.566;2023-07-22T17:10:00;99130.0;;;23.4;41.8
69707;BME280;56975;55.726;37.566;2023-07-22T17:15:00;99140.0;;;22.9;42.8
69707;BME280;56975;55.726;37.566;2023-07-22T17:20:00;99140.0;;;22.4;43.8
69707;BME280;56975;55.726;37.566;2023-07-22T17:25:00;99140.0;;;22.3;43.8
69707;BME280;56975;55.726;37.566;2023-07-22T17:30:00;99150.0;;;22.0;44.8
69707;BME280;56975;55.726;37.566;2023-07-22T17:35:00;99160.0;;;21.7;45.8
69707;BME280;56975;55.726;37.566;2023-07-22T17:40:00;99150.0;;;21.5;45.9
69707;BME280;56975;55.726;37.566;2023-07-22T17:45:00;99150.0;;;21.2;46.4
69707;BME280;56975;55.726;37.566;2023-07-22T17:50:00;99150.0;;;21.4;45.4
69707;BME280;56975;55.726;37.566;2023-07-22T17:55:00;99150.0;;;20.9;47.2
69707;BME280;56975;55.726;37.566;2023-07-22T18:00:00;99150.0;;;20.8;47.7
69707;BME280;56975;55.726;37.566;2023-07-22T18:05:00;99160.0;;;20.7;48.2
69707;BME280;56975;55.726;37.566;2023-07-22T18:10:00;99160.0;;;20.6;48.7
69707;BME280;56975;55.726;37.566;2023-07-22T18:15:00;99150.0;;;20.6;48.9
69707;BME280;56975;55.726;37.566;2023-07-22T18:20:00;99150.0;;;20.6;48.5
69707;BME280;56975;55.726;37.566;2023-07-22T18:25:00;99160.0;;;20.5;49.0
69707;BME280;56975;55.726;37.566;2023-07-22T18:30:00;99160.0;;;20.4;49.5
69707;BME280;56975;55.726;37.566;2023-07-22T18:35:00;99160.0;;;20.4;49.6
69707;BME280;56975;55.726;37.566;2023-07-22T18:40:00;99160.0;;;20.3;50.0
69707;BME280;56975;55.726;37.566;2023-07-22T18:45:00;99170.0;;;20.3;50.2
69707;BME280;56975;55.726;37.566;2023-07-22T18:50:00;99170.0;;;20.3;50.5
69707;BME280;56975;55.726;37.566;2023-07-22T18:55:00;99170.0;;;20.3;50.3
69707;BME280;56975;55.726;37.566;2023-07-22T19:00:00;99170.0;;;20.2;50.6
69707;BME280;56975;55.726;37.566;2023-07-22T19:05:00;99170.0;;;20.1;50.8
69707;BME280;56975;55.726;37.566;2023-07-22T19:10:00;99170.0;;;20.1;50.6
69707;BME280;56975;55.726;37.566;2023-07-22T19:15:00;99160.0;;;20.0;51.0
69707;BME280;56975;55.726;37.566;2023-07-22T19:20:00;99160.0;;;19.9;51.3
69707;BME280;56975;55.726;37.566;2023-07-22T19:25:00;99160.0;;;19.9;51.6
69707;BME280;56975;55.726;37.566;2023-07-22T19:30:00;99160.0;;;19.8;52.7
69707;BME280;56975;55.726;37.566;2023-07-22T19:35:00;99160.0;;;19.7;52.9
69707;BME280;56975;55.726;37.566;2023-07-22T19:40:00;99160.0;;;19.7;52.5
69707;BME280;56975;55.726;37.566;2023-07-22T19:45:00;99160.0;;;19.7;52.9
69707;BME280;56975;55.726;37.566;2023-07-22T19:50:00;99170.0;;;19.6;54.2
69707;BME280;56975;55.726;37.566;2023-07-22T19:55:00;99160.0;;;19.5;54.0
69707;BME280;56975;55.726;37.566;2023-07-22T20:00:00;99160.0;;;19.5;54.2
69707;BME280;56975;55.726;37.566;2023-07-22T20:05:00;99170.0;;;19.5;54.4
69707;BME280;56975;55.726;37.566;2023-07-22T20:10:00;99170.0;;;19.5;55.1
69707;BME280;56975;55.726;37.566;2023-07-22T20:15:00;99170.0;;;19.4;55.6
69707;BME280;56975;55.726;37.566;2023-07-22T20:20:00;99160.0;;;19.3;56.6
69707;BME280;56975;55.726;37.566;2023-07-22T20:25:00;99170.0;;;19.2;57.9
69707;BME280;56975;55.726;37.566;2023-07-22T20:30:00;99160.0;;;19.2;56.3
69707;BME280;56975;55.726;37.566;2023-07-22T20:35:00;99170.0;;;19.1;57.0
69707;BME280;56975;55.726;37.566;2023-07-22T20:40:00;99160.0;;;19.0;58.0
69707;BME280;56975;55.726;37.566;2023-07-22T20:45:00;99160.0;;;18.9;58.5
69707;BME280;56975;55.726;37.566;2023-07-22T20:50:00;99160.0;;;18.8;58.7
69707;BME280;56975;55.726;37.566;2023-07-22T20:55:00;99170.0;;;18.8;58.7
69707;BME280;56975;55.726;37.566;2023-07-22T21:00:00;99160.0;;;18.7;60.0
69707;BME280;56975;55.726;37.566;2023-07-22T21:05:00;99160.0;;;18.7;59.7
69707;BME280;56975;55.726;37.566;2023-07-22T21:10:02;99160.0;;;18.6;60.8
69707;BME280;56975;55.726;37.566;2023-07-22T21:15:00;99150.0;;;18.6;60.7
69707;BME280;56975;55.726;37.566;2023-07-22T21:20:00;99150.0;;;18.6;60.4
69707;BME280;56975;55.726;37.566;2023-07-22T21:25:00;99170.0;;;18.5;60.8
69707;BME280;56975;55.726;37.566;2023-07-22T21:30:00;99160.0;;;18.5;61.6
69707;BME280;56975;55.726;37.566;2023-07-22T21:35:00;99160.0;;;18.5;60.7
69707;BME280;56975;55.726;37.566;2023-07-22T21:40:00;99160.0;;;18.6;60.7
69707;BME280;56975;55.726;37.566;2023-07-22T21:45:00;99160.0;;;18.6;61.0
69707;BME280;56975;55.726;37.566;2023-07-22T21:50:00;99160.0;;;18.5;61.5
69707;BME280;56975;55.726;37.566;2023-07-22T21:55:00;99150.0;;;18.4;61.9
69707;BME280;56975;55.726;37.566;2023-07-22T22:00:00;99140.0;;;18.3;62.4
69707;BME280;56975;55.726;37.566;2023-07-22T22:05:00;99140.0;;;18.2;63.1
69707;BME280;56975;55.726;37.566;2023-07-22T22:10:00;99140.0;;;18.1;63.5
69707;BME280;56975;55.726;37.566;2023-07-22T22:15:00;99140.0;;;18.1;63.8
69707;BME280;56975;55.726;37.566;2023-07-22T22:20:00;99140.0;;;18.0;64.0
69707;BME280;56975;55.726;37.566;2023-07-22T22:25:00;99150.0;;;17.9;65.0
69707;BME280;56975;55.726;37.566;2023-07-22T22:30:03;99150.0;;;17.9;64.7
69707;BME280;56975;55.726;37.566;2023-07-22T22:35:00;99150.0;;;17.9;65.2
69707;BME280;56975;55.726;37.566;2023-07-22T22:40:00;99150.0;;;17.9;65.1
69707;BME280;56975;55.726;37.566;2023-07-22T22:45:00;99150.0;;;17.9;65.5
69707;BME280;56975;55.726;37.566;2023-07-22T22:50:00;99150.0;;;17.9;66.4
69707;BME280;56975;55.726;37.566;2023-07-22T22:55:01;99150.0;;;17.9;66.5
69707;BME280;56975;55.726;37.566;2023-07-22T23:00:00;99150.0;;;17.9;67.0
69707;BME280;56975;55.726;37.566;2023-07-22T23:05:00;99150.0;;;17.8;67.5
69707;BME280;56975;55.726;37.566;2023-07-22T23:10:00;99140.0;;;17.7;68.0
69707;BME280;56975;55.726;37.566;2023-07-22T23:15:00;99150.0;;;17.6;68.4
69707;BME280;56975;55.726;37.566;2023-07-22T23:20:00;99150.0;;;17.5;68.8
69707;BME280;56975;55.726;37.566;2023-07-22T23:25:00;99150.0;;;17.5;69.7
69707;BME280;56975;55.726;37.566;2023-07-22T23:30:00;99140.0;;;17.4;69.8
69707;BME280;56975;55.726;37.566;2023-07-22T23:35:00;99150.0;;;17.3;70.3
69707;BME280;56975;55.726;37.566;2023-07-22T23:40:00;99140.0;;;17.2;71.2
69707;BME280;56975;55.726;37.566;2023-07-22T23:45:00;99140.0;;;17.1;71.9
69707;BME280;56975;55.726;37.566;2023-07-22T23:50:00;99140.0;;;17.0;72.5
69707;BME280;56975;55.726;37.566;2023-07-22T23:55:00;99140.0;;;17.0;72.6
